createdAt,value
2023-05-23T00:00:59.740Z,99658.81
2023-05-23T00:03:27.514Z,99644.19
2023-05-23T00:05:56.656Z,99651.37
2023-05-23T00:08:23.925Z,99651.19
2023-05-23T00:10:51.433Z,99650.53
2023-05-23T00:13:18.958Z,99644.69
2023-05-23T00:15:48.827Z,99641.31
2023-05-23T00:18:16.672Z,99649.03
2023-05-23T00:20:44.090Z,99642.34
2023-05-23T00:23:13.827Z,99645.44
2023-05-23T00:25:41.626Z,99638.13
2023-05-23T00:28:09.006Z,99648.97
2023-05-23T00:30:36.255Z,99644.41
2023-05-23T00:33:04.087Z,99650.69
2023-05-23T00:35:31.356Z,99636.16
2023-05-23T00:37:58.570Z,99642.31
2023-05-23T00:40:26.215Z,99646.03
2023-05-23T00:42:53.641Z,99636.63
2023-05-23T00:45:21.221Z,99638.34
2023-05-23T00:47:49.607Z,99640.84
2023-05-23T00:50:17.138Z,99646.03
2023-05-23T00:52:44.883Z,99655.03
2023-05-23T00:55:12.559Z,99652.69
2023-05-23T00:57:44.580Z,99652.34
2023-05-23T01:00:12.628Z,99647.91
2023-05-23T01:02:45.119Z,99647.97
2023-05-23T01:05:17.593Z,99647.31
2023-05-23T01:07:49.310Z,99647.56
2023-05-23T01:10:19.463Z,99650.31
2023-05-23T01:13:21.651Z,99649.38
2023-05-23T01:16:14.066Z,99650.81
2023-05-23T01:18:59.153Z,99648.97
2023-05-23T01:21:27.173Z,99637.97
2023-05-23T01:24:06.750Z,99635.31
2023-05-23T01:27:06.256Z,99632.75
2023-05-23T01:29:37.221Z,99630.22
2023-05-23T01:32:08.481Z,99629.28
2023-05-23T01:34:37.151Z,99628.50
2023-05-23T01:37:09.893Z,99617.78
2023-05-23T01:39:38.202Z,99627.97
2023-05-23T01:42:06.712Z,99625.44
2023-05-23T01:44:35.394Z,99624.47
2023-05-23T01:47:04.168Z,99613.47
2023-05-23T01:49:32.683Z,99620.50
2023-05-23T01:52:01.888Z,99625.00
2023-05-23T01:54:29.948Z,99618.31
2023-05-23T01:56:57.940Z,99625.38
2023-05-23T01:59:25.571Z,99618.06
2023-05-23T02:01:54.351Z,99618.06
2023-05-23T02:04:22.095Z,99615.03
2023-05-23T02:06:49.510Z,99615.31
2023-05-23T02:09:18.204Z,99603.75
2023-05-23T02:11:46.287Z,99606.78
2023-05-23T02:14:13.839Z,99604.81
2023-05-23T02:16:41.415Z,99606.03
2023-05-23T02:19:09.224Z,99613.63
2023-05-23T02:21:38.306Z,99613.37
2023-05-23T02:24:05.859Z,99613.34
2023-05-23T02:26:33.351Z,99614.38
2023-05-23T02:29:01.230Z,99612.47
2023-05-23T02:31:29.050Z,99603.53
2023-05-23T02:33:59.056Z,99606.47
2023-05-23T02:36:26.856Z,99607.34
2023-05-23T02:38:54.248Z,99596.78
2023-05-23T02:41:23.157Z,99599.50
2023-05-23T02:43:50.972Z,99608.50
2023-05-23T02:46:18.148Z,99602.66
2023-05-23T02:48:45.495Z,99601.00
2023-05-23T02:51:16.104Z,99608.78
2023-05-23T02:53:43.857Z,99599.78
2023-05-23T02:56:13.488Z,99595.38
2023-05-23T02:58:41.068Z,99603.81
2023-05-23T03:01:08.564Z,99593.88
2023-05-23T03:03:36.605Z,99588.00
2023-05-23T03:06:07.620Z,99588.06
2023-05-23T03:08:35.025Z,99591.50
2023-05-23T03:11:02.365Z,99584.88
2023-05-23T03:13:30.460Z,99594.84
2023-05-23T03:15:57.851Z,99598.97
2023-05-23T03:18:25.204Z,99587.84
2023-05-23T03:20:52.788Z,99605.81
2023-05-23T03:23:22.753Z,99606.72
2023-05-23T03:25:50.099Z,99611.28
2023-05-23T03:28:17.713Z,99613.69
2023-05-23T03:30:45.660Z,99611.16
2023-05-23T03:33:13.345Z,99616.28
2023-05-23T03:35:41.141Z,99601.66
2023-05-23T03:38:08.857Z,99600.41
2023-05-23T03:40:36.172Z,99602.47
2023-05-23T03:43:04.904Z,99595.84
2023-05-23T03:45:32.928Z,99596.84
2023-05-23T03:48:02.437Z,99600.34
2023-05-23T03:50:30.683Z,99606.09
2023-05-23T03:52:57.983Z,99602.97
2023-05-23T03:55:25.625Z,99607.91
2023-05-23T03:57:53.289Z,99611.47
2023-05-23T04:00:20.655Z,99601.22
2023-05-23T04:02:52.151Z,99595.44
2023-05-23T04:05:19.733Z,99593.56
2023-05-23T04:07:49.453Z,99600.94
2023-05-23T04:10:17.230Z,99602.72
2023-05-23T04:12:44.899Z,99606.34
2023-05-23T04:15:12.589Z,99596.72
2023-05-23T04:17:41.955Z,99601.91
2023-05-23T04:20:13.086Z,99599.59
2023-05-23T04:22:41.352Z,99603.03
2023-05-23T04:25:09.583Z,99603.63
2023-05-23T04:27:40.557Z,99608.44
2023-05-23T04:30:10.050Z,99605.50
2023-05-23T04:32:39.047Z,99605.44
2023-05-23T04:35:06.611Z,99590.63
2023-05-23T04:37:37.820Z,99588.31
2023-05-23T04:40:05.564Z,99600.88
2023-05-23T04:42:33.632Z,99606.19
2023-05-23T04:45:03.782Z,99603.88
2023-05-23T04:47:37.008Z,99605.25
2023-05-23T04:50:06.186Z,99599.78
2023-05-23T04:52:34.348Z,99604.69
2023-05-23T04:55:02.461Z,99602.88
2023-05-23T04:57:30.687Z,99598.47
2023-05-23T04:59:58.244Z,99603.22
2023-05-23T05:02:27.249Z,99591.84
2023-05-23T05:04:54.992Z,99603.53
2023-05-23T05:07:22.915Z,99598.44
2023-05-23T05:09:50.332Z,99595.03
2023-05-23T05:12:18.544Z,99597.72
2023-05-23T05:14:46.070Z,99593.38
2023-05-23T05:17:13.997Z,99595.03
2023-05-23T05:19:42.302Z,99596.75
2023-05-23T05:22:09.745Z,99587.19
2023-05-23T05:24:37.648Z,99587.13
2023-05-23T05:27:05.839Z,99585.28
2023-05-23T05:29:33.862Z,99586.88
2023-05-23T05:32:01.431Z,99588.34
2023-05-23T05:34:29.822Z,99589.56
2023-05-23T05:36:57.441Z,99593.28
2023-05-23T05:39:26.379Z,99593.06
2023-05-23T05:41:54.740Z,99584.38
2023-05-23T05:44:22.463Z,99594.06
2023-05-23T05:46:51.906Z,99586.84
2023-05-23T05:49:19.899Z,99588.16
2023-05-23T05:51:47.365Z,99587.00
2023-05-23T05:54:15.441Z,99589.87
2023-05-23T05:56:43.623Z,99590.69
2023-05-23T05:59:11.169Z,99582.97
2023-05-23T06:01:38.886Z,99587.06
2023-05-23T06:04:06.605Z,99585.19
2023-05-23T06:06:34.915Z,99583.66
2023-05-23T06:09:02.181Z,99579.47
2023-05-23T06:11:29.987Z,99584.09
2023-05-23T06:13:59.431Z,99587.09
2023-05-23T06:16:26.767Z,99577.34
2023-05-23T06:18:55.378Z,99576.28
2023-05-23T06:21:23.300Z,99575.47
2023-05-23T06:23:52.448Z,99579.53
2023-05-23T06:26:19.884Z,99575.44
2023-05-23T06:28:47.149Z,99580.09
2023-05-23T06:31:14.552Z,99571.34
2023-05-23T06:33:43.038Z,99568.22
2023-05-23T06:36:11.398Z,99584.09
2023-05-23T06:38:38.869Z,99569.47
2023-05-23T06:41:07.283Z,99587.91
2023-05-23T06:43:35.122Z,99572.09
2023-05-23T06:46:03.202Z,99571.66
2023-05-23T06:48:31.534Z,99569.22
2023-05-23T06:50:58.930Z,99569.50
2023-05-23T06:53:26.412Z,99569.72
2023-05-23T06:55:54.801Z,99567.59
2023-05-23T06:58:22.535Z,99558.25
2023-05-23T07:00:50.104Z,99556.09
2023-05-23T07:03:18.666Z,99567.94
2023-05-23T07:05:46.529Z,99560.91
2023-05-23T07:08:16.221Z,99566.53
2023-05-23T07:10:45.184Z,99561.19
2023-05-23T07:13:14.983Z,99560.16
2023-05-23T07:15:42.437Z,99558.34
2023-05-23T07:18:11.370Z,99554.41
2023-05-23T07:20:39.274Z,99547.78
2023-05-23T07:23:09.725Z,99543.00
2023-05-23T07:25:40.356Z,99538.88
2023-05-23T07:28:10.631Z,99541.84
2023-05-23T07:30:38.968Z,99546.00
2023-05-23T07:33:06.613Z,99536.22
2023-05-23T07:35:34.058Z,99537.00
2023-05-23T07:38:02.397Z,99536.31
2023-05-23T07:40:29.963Z,99534.66
2023-05-23T07:42:57.386Z,99534.91
2023-05-23T07:45:24.995Z,99530.41
2023-05-23T07:47:52.884Z,99531.41
2023-05-23T07:50:20.411Z,99532.94
2023-05-23T07:52:51.315Z,99527.41
2023-05-23T07:55:21.450Z,99529.69
2023-05-23T07:57:49.588Z,99530.50
2023-05-23T08:00:17.450Z,99521.25
2023-05-23T08:02:44.580Z,99513.66
2023-05-23T08:05:13.265Z,99516.69
2023-05-23T08:07:41.136Z,99518.59
2023-05-23T08:10:09.239Z,99520.03
2023-05-23T08:12:38.273Z,99515.94
2023-05-23T08:15:06.276Z,99517.50
2023-05-23T08:17:35.004Z,99510.63
2023-05-23T08:20:04.877Z,99518.53
2023-05-23T08:22:32.642Z,99516.47
2023-05-23T08:24:59.931Z,99515.44
2023-05-23T08:27:27.721Z,99515.28
2023-05-23T08:29:55.959Z,99512.78
2023-05-23T08:32:23.700Z,99516.53
2023-05-23T08:34:51.396Z,99516.81
2023-05-23T08:37:19.414Z,99507.78
2023-05-23T08:39:46.742Z,99514.91
2023-05-23T08:42:15.372Z,99521.81
2023-05-23T08:44:43.825Z,99514.72
2023-05-23T08:47:12.582Z,99515.81
2023-05-23T08:49:41.735Z,99511.44
2023-05-23T08:52:12.907Z,99520.81
2023-05-23T08:54:42.873Z,99513.00
2023-05-23T08:57:11.382Z,99518.63
2023-05-23T08:59:40.065Z,99528.31
2023-05-23T09:02:12.484Z,99524.59
2023-05-23T09:04:40.114Z,99518.16
2023-05-23T09:07:08.840Z,99518.00
2023-05-23T09:09:36.320Z,99520.78
2023-05-23T09:12:04.241Z,99519.03
2023-05-23T09:14:33.290Z,99523.63
2023-05-23T09:17:04.039Z,99522.19
2023-05-23T09:19:33.452Z,99525.97
2023-05-23T09:22:02.684Z,99516.97
2023-05-23T09:24:37.161Z,99524.00
2023-05-23T09:27:07.323Z,99524.59
2023-05-23T09:29:39.541Z,99519.63
2023-05-23T09:32:20.324Z,99506.66
2023-05-23T09:34:50.571Z,99521.97
2023-05-23T09:37:19.603Z,99523.25
2023-05-23T09:39:47.782Z,99518.16
2023-05-23T09:42:22.996Z,99529.69
2023-05-23T09:44:50.587Z,99518.41
2023-05-23T09:47:17.907Z,99519.56
2023-05-23T09:49:45.713Z,99509.50
2023-05-23T09:52:13.660Z,99506.44
2023-05-23T09:54:40.951Z,99506.59
2023-05-23T09:57:10.218Z,99508.03
2023-05-23T09:59:39.149Z,99516.84
2023-05-23T10:02:06.981Z,99510.09
2023-05-23T10:04:34.845Z,99509.16
2023-05-23T10:07:05.478Z,99507.41
2023-05-23T10:09:33.323Z,99502.97
2023-05-23T10:12:19.659Z,99516.81
2023-05-23T10:14:49.471Z,99499.81
2023-05-23T10:17:22.306Z,99499.94
2023-05-23T10:19:53.186Z,99496.88
2023-05-23T10:22:20.830Z,99491.44
2023-05-23T10:24:48.236Z,99493.66
2023-05-23T10:27:16.012Z,99481.06
2023-05-23T10:29:43.592Z,99492.78
2023-05-23T10:32:10.988Z,99489.53
2023-05-23T10:34:44.201Z,99480.44
2023-05-23T10:37:12.923Z,99481.22
2023-05-23T10:39:44.561Z,99483.78
2023-05-23T10:42:13.774Z,99481.59
2023-05-23T10:44:41.139Z,99482.91
2023-05-23T10:47:08.608Z,99485.06
2023-05-23T10:49:46.404Z,99477.38
2023-05-23T10:52:14.580Z,99475.91
2023-05-23T10:54:43.288Z,99471.25
2023-05-23T10:57:11.172Z,99470.41
2023-05-23T10:59:41.434Z,99475.75
2023-05-23T11:02:11.420Z,99476.78
2023-05-23T11:04:39.302Z,99470.09
2023-05-23T11:07:06.545Z,99461.38
2023-05-23T11:09:34.052Z,99462.63
2023-05-23T11:12:05.677Z,99464.50
2023-05-23T11:14:37.989Z,99454.69
2023-05-23T11:17:25.864Z,99462.09
2023-05-23T11:20:09.893Z,99450.13
2023-05-23T11:22:38.282Z,99445.75
2023-05-23T11:25:12.203Z,99448.31
2023-05-23T11:27:46.457Z,99449.53
2023-05-23T11:30:18.069Z,99444.94
2023-05-23T11:32:54.001Z,99448.72
2023-05-23T11:35:21.966Z,99438.34
2023-05-23T11:37:49.590Z,99425.88
2023-05-23T11:40:32.434Z,99426.19
2023-05-23T11:43:00.763Z,99432.03
2023-05-23T11:45:28.337Z,99416.72
2023-05-23T11:47:56.229Z,99415.34
2023-05-23T11:50:26.924Z,99415.13
2023-05-23T11:52:57.321Z,99411.31
2023-05-23T11:55:24.766Z,99414.78
2023-05-23T11:57:52.146Z,99399.47
2023-05-23T12:00:19.564Z,99389.75
2023-05-23T12:02:50.363Z,99393.22
2023-05-23T12:05:17.959Z,99386.72
2023-05-23T12:07:47.378Z,99374.53
2023-05-23T12:10:16.745Z,99378.41
2023-05-23T12:12:45.094Z,99381.09
2023-05-23T12:15:12.712Z,99372.34
2023-05-23T12:17:44.262Z,99366.25
2023-05-23T12:20:11.757Z,99366.31
2023-05-23T12:22:38.978Z,99363.63
2023-05-23T12:25:08.890Z,99369.41
2023-05-23T12:27:37.262Z,99364.28
2023-05-23T12:30:14.518Z,99355.78
2023-05-23T12:32:45.630Z,99351.44
2023-05-23T12:35:13.755Z,99356.50
2023-05-23T12:37:41.530Z,99351.19
2023-05-23T12:40:10.646Z,99348.28
2023-05-23T12:42:49.731Z,99350.12
2023-05-23T12:45:17.286Z,99346.09
2023-05-23T12:47:44.584Z,99349.19
2023-05-23T12:50:12.465Z,99342.53
2023-05-23T12:52:40.585Z,99344.19
2023-05-23T12:55:08.410Z,99333.38
2023-05-23T12:57:35.776Z,99330.69
2023-05-23T13:00:03.746Z,99333.00
2023-05-23T13:02:32.921Z,99319.97
2023-05-23T13:05:00.204Z,99318.81
2023-05-23T13:07:28.197Z,99316.44
2023-05-23T13:09:55.374Z,99318.16
2023-05-23T13:12:22.784Z,99308.59
2023-05-23T13:14:50.579Z,99305.59
2023-05-23T13:17:17.825Z,99305.66
2023-05-23T13:19:45.115Z,99306.53
2023-05-23T13:22:12.769Z,99310.41
2023-05-23T13:24:40.385Z,99302.19
2023-05-23T13:27:07.768Z,99297.88
2023-05-23T13:29:35.399Z,99302.00
2023-05-23T13:32:02.625Z,99296.12
2023-05-23T13:34:29.840Z,99296.00
2023-05-23T13:36:57.345Z,99301.94
2023-05-23T13:39:24.670Z,99300.31
2023-05-23T13:41:51.924Z,99303.34
2023-05-23T13:44:19.536Z,99304.56
2023-05-23T13:46:46.833Z,99307.34
2023-05-23T13:49:14.125Z,99305.19
2023-05-23T13:51:43.308Z,99313.69
2023-05-23T13:54:10.565Z,99306.41
2023-05-23T13:56:39.828Z,99303.00
2023-05-23T13:59:07.286Z,99301.78
2023-05-23T14:01:34.594Z,99293.81
2023-05-23T14:04:02.166Z,99301.13
2023-05-23T14:06:30.085Z,99294.78
2023-05-23T14:08:57.277Z,99303.22
2023-05-23T14:11:24.698Z,99297.31
2023-05-23T14:13:52.358Z,99299.34
2023-05-23T14:16:19.866Z,99294.72
2023-05-23T14:18:47.452Z,99290.13
2023-05-23T14:21:14.693Z,99291.00
2023-05-23T14:23:42.273Z,99276.75
2023-05-23T14:26:09.782Z,99278.03
2023-05-23T14:28:37.000Z,99267.25
2023-05-23T14:31:04.227Z,99273.69
2023-05-23T14:33:31.933Z,99263.56
2023-05-23T14:35:59.274Z,99269.03
2023-05-23T14:38:27.128Z,99275.47
2023-05-23T14:40:54.867Z,99272.31
2023-05-23T14:43:22.108Z,99270.13
2023-05-23T14:45:49.508Z,99277.91
2023-05-23T14:48:17.190Z,99267.59
2023-05-23T14:50:44.516Z,99271.00
2023-05-23T14:53:11.998Z,99267.78
2023-05-23T14:55:39.747Z,99266.41
2023-05-23T14:58:07.226Z,99263.06
2023-05-23T15:00:34.656Z,99264.91
2023-05-23T15:03:02.204Z,99259.94
2023-05-23T15:05:29.493Z,99266.81
2023-05-23T15:07:56.753Z,99273.69
2023-05-23T15:10:27.001Z,99267.28
2023-05-23T15:12:54.222Z,99276.09
2023-05-23T15:15:23.399Z,99263.69
2023-05-23T15:17:51.136Z,99262.69
2023-05-23T15:20:18.408Z,99268.56
2023-05-23T15:22:46.121Z,99265.78
2023-05-23T15:25:13.685Z,99277.22
2023-05-23T15:27:41.378Z,99277.41
2023-05-23T15:30:08.954Z,99281.84
2023-05-23T15:32:36.580Z,99283.56
2023-05-23T15:35:04.423Z,99286.59
2023-05-23T15:37:31.618Z,99276.06
2023-05-23T15:39:59.229Z,99281.59
2023-05-23T15:42:26.483Z,99282.22
2023-05-23T15:44:53.752Z,99279.59
2023-05-23T15:47:21.338Z,99276.84
2023-05-23T15:49:48.634Z,99276.72
2023-05-23T15:52:15.984Z,99278.75
2023-05-23T15:54:43.694Z,99273.16
2023-05-23T15:57:11.093Z,99276.75
2023-05-23T15:59:39.455Z,99271.94
2023-05-23T16:02:08.673Z,99273.16
2023-05-23T16:04:36.512Z,99273.31
2023-05-23T16:07:03.879Z,99266.63
2023-05-23T16:09:31.216Z,99273.06
2023-05-23T16:11:58.823Z,99270.84
2023-05-23T16:14:26.037Z,99263.31
2023-05-23T16:16:53.270Z,99263.25
2023-05-23T16:19:20.785Z,99274.72
2023-05-23T16:21:48.077Z,99268.28
2023-05-23T16:24:17.026Z,99271.09
2023-05-23T16:26:44.637Z,99261.84
2023-05-23T16:29:12.391Z,99276.84
2023-05-23T16:31:39.708Z,99273.50
2023-05-23T16:34:07.277Z,99286.84
2023-05-23T16:36:34.501Z,99290.38
2023-05-23T16:39:01.709Z,99291.38
2023-05-23T16:41:29.278Z,99287.72
2023-05-23T16:43:56.606Z,99297.50
2023-05-23T16:46:23.941Z,99295.56
2023-05-23T16:48:51.659Z,99308.59
2023-05-23T16:51:18.969Z,99303.34
2023-05-23T16:53:46.164Z,99306.84
2023-05-23T16:56:13.728Z,99294.47
2023-05-23T16:58:41.793Z,99292.84
2023-05-23T17:01:09.107Z,99294.66
2023-05-23T17:03:36.852Z,99293.09
2023-05-23T17:06:04.197Z,99301.66
2023-05-23T17:08:31.559Z,99307.59
2023-05-23T17:10:59.354Z,99313.66
2023-05-23T17:13:26.671Z,99311.19
2023-05-23T17:15:54.345Z,99320.59
2023-05-23T17:18:22.148Z,99355.59
2023-05-23T17:20:49.582Z,99394.47
2023-05-23T17:23:19.059Z,99426.47
2023-05-23T17:25:47.014Z,99420.09
2023-05-23T17:28:14.558Z,99431.38
2023-05-23T17:30:42.125Z,99403.91
2023-05-23T17:33:11.508Z,99435.50
2023-05-23T17:35:39.158Z,99427.69
2023-05-23T17:38:06.886Z,99433.88
2023-05-23T17:40:34.766Z,99440.34
2023-05-23T17:43:02.386Z,99457.00
2023-05-23T17:45:29.837Z,99455.47
2023-05-23T17:47:58.860Z,99460.69
2023-05-23T17:50:26.340Z,99452.00
2023-05-23T17:52:53.896Z,99464.38
2023-05-23T17:55:21.624Z,99453.91
2023-05-23T17:57:49.063Z,99464.41
2023-05-23T18:00:17.646Z,99475.59
2023-05-23T18:02:45.757Z,99473.88
2023-05-23T18:05:13.265Z,99467.03
2023-05-23T18:07:40.750Z,99481.06
2023-05-23T18:10:09.399Z,99477.53
2023-05-23T18:12:37.281Z,99488.91
2023-05-23T18:15:05.293Z,99488.09
2023-05-23T18:17:33.289Z,99491.53
2023-05-23T18:20:00.786Z,99497.72
2023-05-23T18:22:31.030Z,99491.37
2023-05-23T18:24:59.408Z,99485.44
2023-05-23T18:27:26.854Z,99484.59
2023-05-23T18:29:54.317Z,99482.84
2023-05-23T18:32:22.683Z,99471.44
2023-05-23T18:34:50.182Z,99482.69
2023-05-23T18:37:17.807Z,99491.53
2023-05-23T18:39:46.038Z,99489.53
2023-05-23T18:42:13.730Z,99491.44
2023-05-23T18:44:41.846Z,99473.88
2023-05-23T18:47:09.718Z,99479.94
2023-05-23T18:49:38.168Z,99468.78
2023-05-23T18:52:06.270Z,99465.22
2023-05-23T18:54:34.056Z,99461.78
2023-05-23T18:57:01.720Z,99460.00
2023-05-23T18:59:29.253Z,99463.47
2023-05-23T19:01:59.483Z,99472.25
2023-05-23T19:04:27.170Z,99477.34
2023-05-23T19:06:54.622Z,99473.13
2023-05-23T19:09:22.472Z,99479.19
2023-05-23T19:11:50.198Z,99489.69
2023-05-23T19:14:17.533Z,99494.66
2023-05-23T19:16:45.173Z,99503.97
2023-05-23T19:19:12.719Z,99498.94
2023-05-23T19:21:40.177Z,99508.97
2023-05-23T19:24:08.535Z,99508.03
2023-05-23T19:26:36.036Z,99516.41
2023-05-23T19:29:03.428Z,99520.44
2023-05-23T19:31:31.707Z,99516.56
2023-05-23T19:33:59.231Z,99516.03
2023-05-23T19:36:27.364Z,99514.78
2023-05-23T19:38:55.644Z,99513.13
2023-05-23T19:41:22.992Z,99518.47
2023-05-23T19:43:50.534Z,99517.44
2023-05-23T19:46:18.310Z,99526.81
2023-05-23T19:48:45.827Z,99525.38
2023-05-23T19:51:13.383Z,99525.81
2023-05-23T19:53:41.565Z,99528.97
2023-05-23T19:56:09.777Z,99534.88
2023-05-23T19:58:37.257Z,99530.94
2023-05-23T20:01:05.146Z,99527.25
2023-05-23T20:03:33.034Z,99520.19
2023-05-23T20:06:00.688Z,99521.31
2023-05-23T20:08:28.125Z,99533.88
2023-05-23T20:10:56.185Z,99538.22
2023-05-23T20:13:23.683Z,99528.53
2023-05-23T20:15:51.207Z,99535.81
2023-05-23T20:18:19.327Z,99532.84
2023-05-23T20:20:47.711Z,99533.22
2023-05-23T20:23:15.190Z,99538.41
2023-05-23T20:25:43.252Z,99549.09
2023-05-23T20:28:10.666Z,99537.44
2023-05-23T20:30:38.117Z,99525.06
2023-05-23T20:33:05.917Z,99524.62
2023-05-23T20:35:33.482Z,99521.87
2023-05-23T20:38:01.075Z,99529.00
2023-05-23T20:40:29.641Z,99523.56
2023-05-23T20:43:04.362Z,99524.06
2023-05-23T20:45:33.417Z,99538.19
2023-05-23T20:48:00.879Z,99541.78
2023-05-23T20:50:28.532Z,99547.78
2023-05-23T20:52:56.300Z,99547.41
2023-05-23T20:55:23.785Z,99558.34
2023-05-23T20:57:51.369Z,99568.31
2023-05-23T21:00:21.459Z,99573.69
2023-05-23T21:02:49.251Z,99577.50
2023-05-23T21:05:16.619Z,99577.44
2023-05-23T21:07:44.163Z,99568.81
2023-05-23T21:10:11.384Z,99579.31
2023-05-23T21:12:38.616Z,99582.37
2023-05-23T21:15:09.811Z,99585.12
2023-05-23T21:17:37.184Z,99589.44
2023-05-23T21:20:05.647Z,99598.53
2023-05-23T21:22:33.225Z,99608.06
2023-05-23T21:25:00.430Z,99608.31
2023-05-23T21:27:29.165Z,99598.72
2023-05-23T21:29:56.614Z,99607.44
2023-05-23T21:32:24.964Z,99612.16
2023-05-23T21:34:52.167Z,99619.63
2023-05-23T21:37:19.624Z,99624.06
2023-05-23T21:39:51.990Z,99616.81
2023-05-23T21:42:20.077Z,99616.50
2023-05-23T21:44:47.321Z,99623.91
2023-05-23T21:47:14.574Z,99626.84
2023-05-23T21:49:42.247Z,99628.78
2023-05-23T21:52:09.511Z,99626.00
2023-05-23T21:54:36.748Z,99626.56
2023-05-23T21:57:04.431Z,99626.56
2023-05-23T21:59:31.714Z,99622.97
2023-05-23T22:01:59.640Z,99627.50
2023-05-23T22:04:27.689Z,99633.31
2023-05-23T22:06:54.936Z,99638.88
2023-05-23T22:09:22.175Z,99648.00
2023-05-23T22:11:49.657Z,99651.00
2023-05-23T22:14:16.855Z,99654.56
2023-05-23T22:16:44.702Z,99648.66
2023-05-23T22:19:12.667Z,99654.78
2023-05-23T22:21:39.974Z,99654.78
2023-05-23T22:24:07.281Z,99649.47
2023-05-23T22:26:34.798Z,99653.88
2023-05-23T22:29:02.167Z,99641.63
2023-05-23T22:31:29.364Z,99653.94
2023-05-23T22:33:56.871Z,99649.53
2023-05-23T22:36:24.112Z,99653.84
2023-05-23T22:38:51.291Z,99655.59
2023-05-23T22:41:18.916Z,99659.09
2023-05-23T22:43:46.842Z,99658.31
2023-05-23T22:46:14.840Z,99647.78
2023-05-23T22:48:42.857Z,99657.25
2023-05-23T22:51:12.506Z,99656.13
2023-05-23T22:53:41.186Z,99644.66
2023-05-23T22:56:08.665Z,99645.03
2023-05-23T22:58:36.953Z,99642.44
2023-05-23T23:01:04.224Z,99641.34
2023-05-23T23:03:31.862Z,99649.53
2023-05-23T23:05:59.423Z,99643.37
2023-05-23T23:08:27.365Z,99635.37
2023-05-23T23:10:54.812Z,99645.28
2023-05-23T23:13:21.976Z,99645.78
2023-05-23T23:15:50.340Z,99646.88
2023-05-23T23:18:18.915Z,99654.75
2023-05-23T23:20:46.977Z,99654.16
2023-05-23T23:23:14.502Z,99652.97
2023-05-23T23:25:42.026Z,99647.03
2023-05-23T23:28:09.212Z,99646.38
2023-05-23T23:30:36.431Z,99649.00
2023-05-23T23:33:03.927Z,99649.56
2023-05-23T23:35:31.202Z,99659.22
2023-05-23T23:37:58.420Z,99663.69
2023-05-23T23:40:26.032Z,99657.72
2023-05-23T23:42:53.365Z,99663.50
2023-05-23T23:45:21.049Z,99661.56
2023-05-23T23:47:48.820Z,99660.69
2023-05-23T23:50:16.341Z,99661.69
2023-05-23T23:52:43.967Z,99664.22
2023-05-23T23:55:11.736Z,99666.13
2023-05-23T23:57:39.140Z,99659.94
